Time;durP1;ratioP1;P1;durP2;ratioP2;P2;SDS_P1;SDS_P2;PMS_P1;PMS_P2;Temp;Humidity;BMP_temperature;BMP_pressure;BME280_temperature;BME280_humidity;BME280_pressure;Samples;Min_cycle;Max_cycle;Signal;HPM_P1;HPM_P2
2022/10/12 00:00:43;;;;;;;11.00;8.90;;;;;;;;;;6209926;23;20376;-85
2022/10/12 00:03:10;;;;;;;19.77;9.23;;;;;;;;;;6232873;22;20473;-86
2022/10/12 00:05:37;;;;;;;21.13;9.73;;;;;;;;;;6234616;23;20387;-86
2022/10/12 00:08:03;;;;;;;16.92;9.02;;;;;;;;;;6214437;23;20264;-85
2022/10/12 00:10:29;;;;;;;18.52;9.57;;;;;;;;;;6244103;23;20200;-84
2022/10/12 00:12:55;;;;;;;16.20;7.97;;;;;;;;;;6222681;23;20169;-86
2022/10/12 00:15:21;;;;;;;14.85;8.43;;;;;;;;;;6242083;23;20427;-85
2022/10/12 00:17:47;;;;;;;23.00;9.60;;;;;;;;;;6237828;23;20577;-85
2022/10/12 00:20:13;;;;;;;14.93;9.00;;;;;;;;;;6212101;23;20882;-84
2022/10/12 00:22:39;;;;;;;19.15;9.90;;;;;;;;;;6234115;22;20488;-85
2022/10/12 00:25:05;;;;;;;36.40;11.05;;;;;;;;;;6234538;23;20187;-86
2022/10/12 00:27:31;;;;;;;15.63;8.15;;;;;;;;;;6239918;23;20238;-86
2022/10/12 00:29:57;;;;;;;16.58;9.18;;;;;;;;;;6223161;23;20137;-83
2022/10/12 00:32:23;;;;;;;15.32;9.27;;;;;;;;;;6218470;23;20168;-85
2022/10/12 00:34:49;;;;;;;11.95;8.35;;;;;;;;;;6244054;23;20189;-83
2022/10/12 00:37:15;;;;;;;20.90;9.63;;;;;;;;;;6215910;23;20150;-85
2022/10/12 00:39:41;;;;;;;17.20;8.10;;;;;;;;;;6204252;23;20369;-84
2022/10/12 00:42:10;;;;;;;16.03;8.93;;;11.10;99.90;;;;;;6213505;23;20507;-85
2022/10/12 00:44:47;;;;;;;16.60;8.63;;;11.00;99.90;;;;;;6212722;23;20399;-85
2022/10/12 00:47:17;;;;;;;21.05;10.18;;;;;;;;;;6214524;23;20144;-84
2022/10/12 00:49:47;;;;;;;19.48;9.25;;;10.90;99.90;;;;;;6238453;23;20981;-84
2022/10/12 00:52:14;;;;;;;20.70;10.13;;;;;;;;;;6239764;22;20181;-83
2022/10/12 00:54:42;;;;;;;20.65;10.55;;;;;;;;;;6220547;23;20176;-84
2022/10/12 00:57:09;;;;;;;24.83;10.98;;;;;;;;;;6244841;23;20220;-84
2022/10/12 00:59:40;;;;;;;17.10;9.77;;;10.70;99.90;;;;;;6218818;23;20150;-84
2022/10/12 01:02:06;;;;;;;19.88;9.95;;;;;;;;;;6213294;23;20165;-85
2022/10/12 01:04:33;;;;;;;19.08;11.35;;;;;;;;;;6239056;23;20215;-84
2022/10/12 01:06:59;;;;;;;15.70;9.52;;;;;;;;;;6216171;23;20142;-85
2022/10/12 01:09:26;;;;;;;22.02;11.25;;;;;;;;;;6206497;23;21017;-84
2022/10/12 01:11:52;;;;;;;21.30;9.40;;;;;;;;;;6209727;23;20185;-84
2022/10/12 01:14:18;;;;;;;23.85;11.75;;;;;;;;;;6208195;23;20157;-84
2022/10/12 01:16:52;;;;;;;18.48;10.25;;;;;;;;;;6218360;23;20133;-84
2022/10/12 01:19:40;;;;;;;22.52;11.55;;;10.90;99.90;;;;;;6198142;23;20596;-84
2022/10/12 01:22:11;;;;;;;21.67;10.25;;;;;;;;;;6233559;22;20179;-86
2022/10/12 01:25:10;;;;;;;22.98;10.60;;;10.80;99.90;;;;;;6214336;23;20164;-85
2022/10/12 01:27:44;;;;;;;18.92;9.75;;;;;;;;;;6199041;23;20163;-84
2022/10/12 01:30:29;;;;;;;17.48;10.05;;;10.70;99.90;;;;;;6237657;23;20147;-87
2022/10/12 01:33:01;;;;;;;19.40;10.85;;;;;;;;;;6234467;22;20177;-85
2022/10/12 01:35:38;;;;;;;19.83;10.23;;;10.60;99.90;;;;;;6238218;23;20188;-85
2022/10/12 01:38:04;;;;;;;15.52;9.15;;;;;;;;;;6240833;23;20145;-84
2022/10/12 01:40:39;;;;;;;21.45;9.85;;;10.50;99.90;;;;;;6225611;23;20148;-83
2022/10/12 01:43:05;;;;;;;19.83;9.65;;;;;;;;;;6222716;23;20169;-83
2022/10/12 01:45:31;;;;;;;17.15;9.50;;;;;;;;;;6217043;23;20141;-85
2022/10/12 01:47:57;;;;;;;19.13;10.50;;;;;;;;;;6215579;23;20176;-84
2022/10/12 01:50:26;;;;;;;17.65;10.57;;;;;;;;;;6215198;23;20427;-85
2022/10/12 01:53:15;;;;;;;19.80;10.43;;;10.30;99.90;;;;;;6239290;22;20177;-84
2022/10/12 01:56:19;;;;;;;30.38;11.05;;;10.20;99.90;;;;;;6216734;23;20180;-83
2022/10/12 01:58:45;;;;;;;17.27;9.50;;;;;;;;;;6169174;23;20216;-83
2022/10/12 02:01:33;;;;;;;36.70;10.30;;;;;;;;;;6242886;23;20175;-83
2022/10/12 02:04:20;;;;;;;19.38;10.30;;;10.10;99.90;;;;;;6215756;23;20365;-85
2022/10/12 02:06:58;;;;;;;23.50;10.55;;;10.10;99.90;;;;;;6241811;23;20217;-84
2022/10/12 02:09:33;;;;;;;19.85;11.15;;;10.10;99.90;;;;;;6239017;23;20148;-84
2022/10/12 02:12:04;;;;;;;43.15;13.60;;;;;;;;;;6234069;22;20212;-84
2022/10/12 02:14:36;;;;;;;22.58;10.88;;;;;;;;;;6218394;23;20161;-86
2022/10/12 02:17:06;;;;;;;33.55;11.15;;;10.10;99.90;;;;;;6243353;23;20683;-85
2022/10/12 02:19:38;;;;;;;30.83;10.77;;;10.00;99.90;;;;;;6217316;23;20149;-88
2022/10/12 02:22:05;;;;;;;28.30;10.82;;;9.90;99.90;;;;;;6213580;23;20223;-86
2022/10/12 02:24:35;;;;;;;20.60;11.35;;;9.80;99.90;;;;;;6214439;23;20157;-87
2022/10/12 02:27:02;;;;;;;24.48;11.55;;;;;;;;;;6218761;23;20153;-86
2022/10/12 02:29:36;;;;;;;22.05;11.30;;;9.90;99.90;;;;;;6214058;23;20180;-86
2022/10/12 02:32:15;;;;;;;21.45;10.73;;;9.90;99.90;;;;;;6216629;23;20246;-86
2022/10/12 02:34:47;;;;;;;32.22;12.65;;;;;;;;;;6220737;23;20164;-85
2022/10/12 02:37:13;;;;;;;29.67;12.95;;;;;;;;;;6214342;23;20152;-86
2022/10/12 02:39:53;;;;;;;28.27;13.20;;;10.40;99.90;;;;;;6236055;23;20240;-87
2022/10/12 02:42:32;;;;;;;22.63;12.07;;;10.20;99.90;;;;;;6237173;22;20404;-88
2022/10/12 02:44:59;;;;;;;24.08;11.02;;;10.20;99.90;;;;;;6236620;23;20145;-88
2022/10/12 02:47:27;;;;;;;26.45;12.60;;;10.30;99.90;;;;;;6215882;23;20898;-87
2022/10/12 02:49:54;;;;;;;20.23;10.93;;;10.50;99.90;;;;;;6238194;23;20167;-87
2022/10/12 02:52:21;;;;;;;26.75;12.45;;;;;;;;;;6236516;22;20185;-86
2022/10/12 02:54:46;;;;;;;23.33;11.70;;;;;;;;;;6235383;23;20192;-86
2022/10/12 02:57:12;;;;;;;19.33;12.03;;;;;;;;;;6237013;23;20660;-87
2022/10/12 02:59:38;;;;;;;21.07;11.27;;;;;;;;;;6232934;23;21100;-87
2022/10/12 03:02:04;;;;;;;25.43;11.63;;;;;;;;;;6204487;23;20451;-86
2022/10/12 03:04:30;;;;;;;21.73;10.97;;;;;;;;;;6235008;23;20395;-85
2022/10/12 03:06:56;;;;;;;19.40;11.33;;;;;;;;;;6238541;23;20466;-86
2022/10/12 03:09:22;;;;;;;21.80;10.03;;;;;;;;;;6218024;23;20369;-84
2022/10/12 03:11:48;;;;;;;25.07;10.30;;;;;;;;;;6245681;22;20443;-87
2022/10/12 03:14:15;;;;;;;15.35;10.32;;;;;;;;;;6232096;23;20412;-86
2022/10/12 03:16:42;;;;;;;12.20;9.18;;;;;;;;;;6247539;23;20223;-84
2022/10/12 03:19:08;;;;;;;15.57;10.00;;;;;;;;;;6223637;23;20207;-86
2022/10/12 03:21:34;;;;;;;19.63;9.83;;;;;;;;;;6227391;22;20137;-86
2022/10/12 03:24:00;;;;;;;17.25;10.05;;;;;;;;;;6243955;22;20391;-85
2022/10/12 03:26:26;;;;;;;16.10;9.35;;;;;;;;;;6210714;23;20133;-86
2022/10/12 03:28:52;;;;;;;14.80;9.53;;;;;;;;;;6214297;23;20172;-84
2022/10/12 03:31:18;;;;;;;15.70;8.60;;;;;;;;;;6219969;23;20369;-87
2022/10/12 03:33:44;;;;;;;13.37;9.13;;;;;;;;;;6216202;23;20392;-84
2022/10/12 03:36:10;;;;;;;17.60;9.50;;;;;;;;;;6214445;23;20391;-84
2022/10/12 03:38:36;;;;;;;15.70;9.33;;;;;;;;;;6217125;23;20368;-85
2022/10/12 03:41:02;;;;;;;11.80;8.40;;;;;;;;;;6215592;23;20406;-84
2022/10/12 03:43:28;;;;;;;15.13;8.20;;;;;;;;;;6217299;23;20384;-85
2022/10/12 03:45:54;;;;;;;14.73;8.73;;;;;;;;;;6219564;23;20380;-84
2022/10/12 03:48:20;;;;;;;14.60;8.47;;;;;;;;;;6219508;23;20382;-84
2022/10/12 03:50:50;;;;;;;12.95;9.13;;;10.70;99.90;;;;;;6220629;23;21421;-85
2022/10/12 03:53:17;;;;;;;16.73;9.13;;;;;;;;;;6218276;23;20235;-83
2022/10/12 03:55:43;;;;;;;16.85;10.02;;;;;;;;;;6217932;23;20166;-85
2022/10/12 03:58:09;;;;;;;11.27;8.10;;;;;;;;;;6241940;23;20199;-85
2022/10/12 04:00:35;;;;;;;16.50;9.33;;;;;;;;;;6214224;23;20586;-85
2022/10/12 04:03:01;;;;;;;17.42;9.35;;;;;;;;;;6241855;22;20393;-85
2022/10/12 04:05:27;;;;;;;12.43;7.95;;;;;;;;;;6219758;23;20480;-86
2022/10/12 04:07:53;;;;;;;13.98;9.60;;;;;;;;;;6220424;23;20604;-84
2022/10/12 04:10:19;;;;;;;22.63;10.25;;;;;;;;;;6238392;23;20173;-85
2022/10/12 04:12:45;;;;;;;12.70;9.37;;;;;;;;;;6217007;23;20176;-85
2022/10/12 04:15:11;;;;;;;21.88;10.85;;;;;;;;;;6217721;23;20411;-85
2022/10/12 04:17:38;;;;;;;21.88;9.40;;;;;;;;;;6219151;23;20260;-86
2022/10/12 04:20:04;;;;;;;16.85;9.18;;;;;;;;;;6217506;23;20196;-86
2022/10/12 04:22:30;;;;;;;23.42;9.70;;;;;;;;;;6243788;22;20176;-85
2022/10/12 04:24:56;;;;;;;23.10;10.10;;;;;;;;;;6219962;23;20149;-84
2022/10/12 04:27:22;;;;;;;15.13;9.77;;;;;;;;;;6243046;23;20380;-85
2022/10/12 04:29:48;;;;;;;14.57;9.37;;;;;;;;;;6243109;23;20387;-83
2022/10/12 04:32:14;;;;;;;17.50;10.77;;;;;;;;;;6242128;22;20457;-85
2022/10/12 04:34:40;;;;;;;19.52;9.10;;;;;;;;;;6242073;23;20498;-85
2022/10/12 04:37:06;;;;;;;17.83;10.27;;;;;;;;;;6217402;23;20156;-85
2022/10/12 04:39:32;;;;;;;14.93;9.83;;;;;;;;;;6242961;23;20410;-85
2022/10/12 04:41:58;;;;;;;17.47;9.93;;;;;;;;;;6252094;22;20400;-85
2022/10/12 04:44:24;;;;;;;24.90;11.07;;;;;;;;;;6217934;23;20564;-85
2022/10/12 04:46:50;;;;;;;28.97;11.93;;;;;;;;;;6236906;23;20624;-83
2022/10/12 04:49:16;;;;;;;16.00;9.87;;;;;;;;;;6213706;23;20428;-84
2022/10/12 04:51:42;;;;;;;23.23;10.70;;;;;;;;;;6238483;23;20388;-84
2022/10/12 04:54:09;;;;;;;19.20;10.60;;;9.80;99.90;;;;;;6236167;23;20474;-85
2022/10/12 04:56:35;;;;;;;22.70;10.77;;;;;;;;;;6238714;23;20153;-83
2022/10/12 04:59:01;;;;;;;21.87;10.90;;;;;;;;;;6214116;23;20180;-84
2022/10/12 05:01:27;;;;;;;28.23;11.70;;;;;;;;;;6223949;23;20363;-84
2022/10/12 05:03:53;;;;;;;24.13;11.07;;;;;;;;;;6239486;23;20169;-85
2022/10/12 05:06:19;;;;;;;22.27;11.13;;;;;;;;;;6217238;23;20373;-83
2022/10/12 05:08:45;;;;;;;22.90;10.83;;;;;;;;;;6236631;23;20396;-84
2022/10/12 05:11:11;;;;;;;26.52;12.07;;;;;;;;;;6209901;23;20388;-86
2022/10/12 05:13:37;;;;;;;24.30;11.10;;;;;;;;;;6215424;23;20180;-84
2022/10/12 05:16:03;;;;;;;18.17;10.75;;;;;;;;;;6213074;23;20410;-84
2022/10/12 05:18:29;;;;;;;18.90;9.50;;;;;;;;;;6213846;23;20141;-85
2022/10/12 05:20:55;;;;;;;21.08;11.10;;;;;;;;;;6210355;23;20434;-85
2022/10/12 05:23:21;;;;;;;23.73;12.13;;;;;;;;;;6239513;22;20172;-83
2022/10/12 05:25:47;;;;;;;29.00;11.13;;;;;;;;;;6212245;23;20246;-85
2022/10/12 05:28:13;;;;;;;21.10;11.57;;;;;;;;;;6214410;23;20434;-83
2022/10/12 05:30:39;;;;;;;20.90;10.40;;;;;;;;;;6210639;23;20372;-86
2022/10/12 05:33:05;;;;;;;19.98;11.40;;;;;;;;;;6235350;22;20940;-85
2022/10/12 05:35:31;;;;;;;21.30;11.00;;;;;;;;;;6228834;23;20169;-86
2022/10/12 05:37:57;;;;;;;16.47;10.67;;;;;;;;;;6231932;23;20391;-85
2022/10/12 05:40:23;;;;;;;19.53;11.27;;;;;;;;;;6227039;23;20372;-84
2022/10/12 05:42:49;;;;;;;19.52;12.60;;;;;;;;;;6207527;23;21136;-85
2022/10/12 05:45:15;;;;;;;27.53;11.90;;;;;;;;;;6203046;23;20211;-84
2022/10/12 05:47:41;;;;;;;20.05;11.70;;;;;;;;;;6207765;23;20442;-83
2022/10/12 05:50:07;;;;;;;17.47;11.23;;;;;;;;;;6196975;23;20137;-84
2022/10/12 05:52:34;;;;;;;17.90;11.05;;;;;;;;;;6223625;22;20487;-85
2022/10/12 05:55:00;;;;;;;21.42;11.93;;;;;;;;;;6221059;23;20196;-85
2022/10/12 05:57:26;;;;;;;20.30;10.47;;;;;;;;;;6207594;23;20149;-85
2022/10/12 05:59:51;;;;;;;18.53;11.80;;;;;;;;;;6250488;23;20387;-84
2022/10/12 06:02:18;;;;;;;26.70;12.13;;;;;;;;;;6223666;22;21292;-86
2022/10/12 06:04:44;;;;;;;18.17;10.00;;;;;;;;;;6211954;23;20345;-86
2022/10/12 06:07:10;;;;;;;19.73;11.65;;;;;;;;;;6213565;23;20149;-85
2022/10/12 06:09:39;;;;;;;18.50;10.77;;;;;;;;;;6212884;23;20134;-85
2022/10/12 06:12:07;;;;;;;18.80;12.10;;;10.60;99.90;;;;;;6247437;22;20192;-84
2022/10/12 06:14:33;;;;;;;19.45;11.40;;;;;;;;;;6241764;22;20215;-85
2022/10/12 06:16:59;;;;;;;22.67;11.87;;;;;;;;;;6233522;23;20179;-85
2022/10/12 06:19:25;;;;;;;15.17;9.50;;;;;;;;;;6211939;23;20368;-85
2022/10/12 06:21:51;;;;;;;21.75;10.23;;;;;;;;;;6233819;22;20878;-85
2022/10/12 06:24:17;;;;;;;24.57;11.77;;;;;;;;;;6229761;23;20168;-86
2022/10/12 06:26:43;;;;;;;20.80;10.40;;;;;;;;;;6231368;23;20381;-85
2022/10/12 06:29:09;;;;;;;16.00;11.37;;;;;;;;;;6229998;23;20389;-86
2022/10/12 06:31:37;;;;;;;15.95;9.95;;;;;;;;;;6206655;23;20452;-85
2022/10/12 06:34:03;;;;;;;28.02;12.10;;;;;;;;;;6207062;23;20295;-85
2022/10/12 06:36:29;;;;;;;17.60;10.67;;;;;;;;;;6209768;23;20176;-85
2022/10/12 06:38:55;;;;;;;22.20;10.87;;;;;;;;;;6207059;23;20459;-86
2022/10/12 06:41:21;;;;;;;16.73;10.00;;;;;;;;;;6209603;23;20372;-85
2022/10/12 06:43:46;;;;;;;18.23;10.73;;;;;;;;;;6233769;22;20178;-84
2022/10/12 06:46:12;;;;;;;14.90;9.60;;;;;;;;;;6213242;23;20368;-85
2022/10/12 06:48:38;;;;;;;19.60;9.93;;;;;;;;;;6207717;23;20434;-85
2022/10/12 06:51:04;;;;;;;18.70;10.53;;;;;;;;;;6210399;23;20366;-84
2022/10/12 06:53:31;;;;;;;16.30;9.80;;;;;;;;;;6228050;22;20400;-85
2022/10/12 06:55:58;;;;;;;18.27;9.30;;;;;;;;;;6206206;23;20435;-85
2022/10/12 06:58:24;;;;;;;18.85;10.50;;;;;;;;;;6210484;23;20157;-84
2022/10/12 07:00:51;;;;;;;21.92;10.20;;;;;;;;;;6214948;23;20185;-86
2022/10/12 07:03:17;;;;;;;18.20;10.20;;;;;;;;;;6207014;23;20168;-84
2022/10/12 07:05:43;;;;;;;19.80;10.00;;;;;;;;;;6211420;23;20154;-85
2022/10/12 07:08:08;;;;;;;14.43;9.50;;;;;;;;;;6237391;23;20444;-86
2022/10/12 07:10:34;;;;;;;15.87;8.60;;;;;;;;;;6203944;23;20422;-84
2022/10/12 07:13:00;;;;;;;12.55;9.77;;;;;;;;;;6211503;23;20392;-84
2022/10/12 07:15:29;;;;;;;17.47;9.40;;;;;;;;;;6236163;23;20198;-84
2022/10/12 07:17:57;;;;;;;19.42;9.02;;;;;;;;;;6210193;23;20365;-85
2022/10/12 07:20:28;;;;;;;14.73;9.65;;;14.30;99.90;;;;;;6231310;23;20590;-86
2022/10/12 07:22:54;;;;;;;15.48;9.48;;;;;;;;;;6208454;23;20200;-85
2022/10/12 07:25:21;;;;;;;23.23;9.50;;;;;;;;;;6206904;23;20148;-84
2022/10/12 07:27:47;;;;;;;11.30;7.97;;;15.60;99.90;;;;;;6206304;23;20380;-85
2022/10/12 07:30:13;;;;;;;12.20;8.17;;;;;;;;;;6207836;23;21116;-86
2022/10/12 07:32:39;;;;;;;20.13;8.70;;;;;;;;;;6229172;22;20400;-84
2022/10/12 07:35:05;;;;;;;16.23;8.53;;;;;;;;;;6230441;23;20973;-85
2022/10/12 07:37:31;;;;;;;18.20;8.60;;;;;;;;;;6207268;23;20834;-84
2022/10/12 07:39:58;;;;;;;14.63;9.20;;;;;;;;;;6218357;23;20365;-84
2022/10/12 07:42:24;;;;;;;21.10;9.43;;;;;;;;;;6226361;22;20389;-84
2022/10/12 07:44:50;;;;;;;17.03;9.53;;;15.60;99.90;;;;;;6214755;23;20369;-86
2022/10/12 07:47:16;;;;;;;14.03;8.33;;;;;;;;;;6214081;23;20458;-85
2022/10/12 07:49:42;;;;;;;18.17;9.10;;;;;;;;;;6235628;23;20646;-84
2022/10/12 07:52:09;;;;;;;16.00;9.30;;;;;;;;;;6233235;22;20436;-85
2022/10/12 07:54:34;;;;;;;12.77;8.53;;;;;;;;;;6231964;23;20415;-84
2022/10/12 07:57:00;;;;;;;15.27;8.83;;;;;;;;;;6211591;23;20375;-85
2022/10/12 07:59:26;;;;;;;14.33;7.67;;;;;;;;;;6207141;23;20381;-85
2022/10/12 08:01:52;;;;;;;16.43;8.23;;;;;;;;;;6209950;23;20387;-87
2022/10/12 08:04:18;;;;;;;17.83;9.20;;;;;;;;;;6206410;23;20373;-87
2022/10/12 08:06:44;;;;;;;16.53;9.80;;;;;;;;;;6206957;23;20400;-86
2022/10/12 08:09:10;;;;;;;14.90;10.13;;;;;;;;;;6206248;23;20451;-85
2022/10/12 08:11:40;;;;;;;16.27;9.93;;;;;;;;;;6198583;23;20930;-87
2022/10/12 08:14:11;;;;;;;22.47;10.10;;;16.20;99.90;;;;;;6227157;23;20934;-86
2022/10/12 08:16:37;;;;;;;21.03;10.00;;;;;;;;;;6201370;23;20372;-86
2022/10/12 08:19:03;;;;;;;15.93;10.30;;;;;;;;;;6207878;23;20406;-87
2022/10/12 08:21:29;;;;;;;15.63;10.57;;;;;;;;;;6205951;23;20377;-87
2022/10/12 08:23:55;;;;;;;13.87;9.67;;;;;;;;;;6202724;23;20977;-85
2022/10/12 08:26:21;;;;;;;15.57;11.20;;;;;;;;;;6201176;23;20453;-84
2022/10/12 08:28:47;;;;;;;16.67;11.23;;;;;;;;;;6201960;23;20361;-86
2022/10/12 08:31:15;;;;;;;19.50;10.73;;;19.10;99.90;;;;;;6203169;23;20450;-86
2022/10/12 08:33:41;;;;;;;16.93;10.43;;;;;;;;;;6227614;22;20410;-85
2022/10/12 08:36:07;;;;;;;16.60;10.63;;;;;;;;;;6227356;23;20463;-85
2022/10/12 08:38:37;;;;;;;21.53;11.00;;;21.10;99.90;;;;;;6203049;23;20365;-84
2022/10/12 08:41:22;;;;;;;28.23;11.13;;;21.20;99.90;;;;;;6254304;23;20383;-83
2022/10/12 08:44:18;;;;;;;16.17;10.73;;;21.30;99.90;;;;;;6228096;22;20388;-84
2022/10/12 08:46:45;;;;;;;18.63;11.37;;;;;;;;;;6215621;23;20420;-87
2022/10/12 08:49:15;;;;;;;18.10;10.33;;;19.90;99.90;;;;;;6211065;23;20403;-87
2022/10/12 08:51:59;;;;;;;17.03;10.03;;;19.40;99.90;;;;;;6208889;23;20356;-86
2022/10/12 08:54:34;;;;;;;17.40;12.00;;;18.80;99.90;;;;;;6221639;23;20914;-86
2022/10/12 08:57:01;;;;;;;35.20;12.67;;;;;;;;;;6230395;23;20368;-86
2022/10/12 08:59:30;;;;;;;20.00;13.20;;;;;;;;;;6227098;23;20380;-86
2022/10/12 09:02:07;;;;;;;14.60;10.30;;;;;;;;;;6231029;22;20400;-85
2022/10/12 09:04:36;;;;;;;30.03;12.60;;;;;;;;;;6206078;23;20360;-85
2022/10/12 09:07:16;;;;;;;15.97;11.90;;;19.60;99.90;;;;;;6204581;23;20380;-84
2022/10/12 09:09:52;;;;;;;18.33;11.67;;;;;;;;;;6214385;23;20419;-83
2022/10/12 09:12:55;;;;;;;59.57;15.03;;;19.40;99.90;;;;;;6248044;22;20427;-86
2022/10/12 09:15:27;;;;;;;28.03;12.80;;;19.40;99.90;;;;;;6205409;23;20423;-86
2022/10/12 09:17:54;;;;;;;19.63;13.40;;;;;;;;;;6208277;23;20360;-86
2022/10/12 09:20:34;;;;;;;22.97;13.00;;;19.50;99.90;;;;;;6231249;23;20455;-86
2022/10/12 09:23:43;;;;;;;19.97;13.70;;;18.70;99.90;;;;;;6202413;23;20404;-85
2022/10/12 09:26:40;;;;;;;29.70;13.43;;;18.20;99.90;;;;;;6208721;22;20395;-86
2022/10/12 09:29:25;;;;;;;21.83;13.53;;;18.10;99.90;;;;;;6203511;23;20391;-85
2022/10/12 09:31:59;;;;;;;22.37;12.67;;;18.20;99.90;;;;;;6233317;22;20403;-86
2022/10/12 09:34:25;;;;;;;24.73;12.67;;;;;;;;;;6208255;23;20411;-85
2022/10/12 09:36:51;;;;;;;21.80;13.60;;;;;;;;;;6212712;23;20365;-86
2022/10/12 09:39:20;;;;;;;23.90;12.97;;;19.90;99.90;;;;;;6229868;23;20364;-86
2022/10/12 09:41:47;;;;;;;24.30;12.70;;;19.80;99.90;;;;;;6210276;23;20870;-85
2022/10/12 09:44:33;;;;;;;17.33;11.63;;;19.90;99.90;;;;;;6208026;23;20388;-85
2022/10/12 09:47:05;;;;;;;15.57;11.73;;;20.10;99.90;;;;;;6207809;23;20847;-86
2022/10/12 09:49:40;;;;;;;15.73;10.87;;;20.10;99.90;;;;;;6202753;23;20930;-85
2022/10/12 09:52:06;;;;;;;19.57;12.77;;;;;;;;;;6206670;23;20402;-86
2022/10/12 09:54:33;;;;;;;22.20;13.37;;;;;;;;;;6194067;23;20894;-84
2022/10/12 09:56:59;;;;;;;21.83;13.00;;;;;;;;;;6204136;23;20448;-84
2022/10/12 09:59:42;;;;;;;21.77;14.17;;;21.20;99.90;;;;;;6204685;23;20675;-85
2022/10/12 10:02:15;;;;;;;24.33;13.03;;;20.90;99.90;;;;;;6227406;22;20412;-83
2022/10/12 10:04:42;;;;;;;24.20;13.37;;;20.70;99.90;;;;;;6203626;23;20439;-86
2022/10/12 10:07:19;;;;;;;22.00;12.20;;;21.70;99.90;;;;;;6227452;23;20890;-85
2022/10/12 10:09:45;;;;;;;23.57;13.13;;;21.40;99.90;;;;;;6205288;23;20367;-86
2022/10/12 10:12:20;;;;;;;21.10;11.87;;;21.60;99.90;;;;;;6205209;23;20400;-86
2022/10/12 10:14:46;;;;;;;16.63;11.83;;;;;;;;;;6204909;23;20460;-85
2022/10/12 10:17:22;;;;;;;18.67;12.50;;;21.80;99.90;;;;;;6203863;23;20690;-86
2022/10/12 10:19:52;;;;;;;19.43;12.33;;;21.80;99.90;;;;;;6202222;23;20933;-86
2022/10/12 10:22:18;;;;;;;20.90;12.20;;;21.30;99.90;;;;;;6199185;23;20687;-84
2022/10/12 10:24:53;;;;;;;23.20;13.57;;;20.40;99.90;;;;;;6200156;23;20356;-84
2022/10/12 10:27:37;;;;;;;19.53;11.03;;;20.60;99.90;;;;;;6206240;23;20402;-86
2022/10/12 10:30:08;;;;;;;23.97;11.07;;;20.00;99.90;;;;;;6204642;23;20831;-85
2022/10/12 10:32:34;;;;;;;19.80;11.77;;;;;;;;;;6203423;23;20392;-85
2022/10/12 10:35:07;;;;;;;24.43;12.93;;;19.20;99.90;;;;;;6221266;23;20451;-86
2022/10/12 10:37:34;;;;;;;25.17;13.27;;;19.30;99.90;;;;;;6194845;23;20360;-86
2022/10/12 10:40:01;;;;;;;16.60;10.50;;;;;;;;;;6207992;23;20367;-84
2022/10/12 10:42:32;;;;;;;23.03;12.80;;;19.30;99.90;;;;;;6217386;23;20388;-85
2022/10/12 10:45:06;;;;;;;25.90;12.60;;;19.50;99.90;;;;;;6210023;23;20364;-86
2022/10/12 10:47:33;;;;;;;27.30;13.83;;;19.00;99.90;;;;;;6207409;23;20360;-86
2022/10/12 10:50:06;;;;;;;28.07;14.77;;;18.30;99.90;;;;;;6210094;23;20380;-87
2022/10/12 10:52:34;;;;;;;38.20;18.80;;;18.00;99.90;;;;;;6204769;23;20521;-87
2022/10/12 10:55:09;;;;;;;21.00;12.10;;;17.80;99.90;;;;;;6204159;23;20408;-88
2022/10/12 10:57:37;;;;;;;24.93;12.33;;;18.20;99.90;;;;;;6188951;23;20356;-87
2022/10/12 11:00:10;;;;;;;31.07;13.53;;;18.50;99.90;;;;;;6198231;23;20380;-87
2022/10/12 11:02:45;;;;;;;32.13;14.03;;;18.10;99.90;;;;;;6185945;23;20405;-87
2022/10/12 11:05:32;;;;;;;19.80;12.50;;;17.70;99.90;;;;;;6198748;23;20360;-88
2022/10/12 11:08:05;;;;;;;31.37;14.27;;;18.00;99.90;;;;;;6192300;23;20365;-88
2022/10/12 11:10:51;;;;;;;27.13;13.50;;;18.20;99.90;;;;;;6192960;23;20447;-87
2022/10/12 11:13:17;;;;;;;26.40;13.50;;;;;;;;;;6191748;23;20964;-87
2022/10/12 11:15:42;;;;;;;26.70;13.13;;;;;;;;;;6200750;23;20424;-87
2022/10/12 11:18:23;;;;;;;21.97;13.33;;;19.20;99.90;;;;;;6199435;23;20464;-87
2022/10/12 11:21:03;;;;;;;25.80;13.70;;;18.90;99.90;;;;;;6197989;23;20384;-87
2022/10/12 11:23:44;;;;;;;27.13;13.30;;;18.80;99.90;;;;;;6219765;23;20388;-88
2022/10/12 11:26:28;;;;;;;20.73;12.60;;;18.60;99.90;;;;;;6231094;23;20432;-88
2022/10/12 11:28:56;;;;;;;23.20;13.30;;;18.50;99.90;;;;;;6217394;23;20356;-88
2022/10/12 11:31:26;;;;;;;22.43;13.67;;;;;;;;;;6239221;23;20385;-87
2022/10/12 11:33:53;;;;;;;34.70;13.77;;;18.70;99.90;;;;;;6207193;23;20383;-86
2022/10/12 11:36:23;;;;;;;23.57;12.80;;;18.60;99.90;;;;;;6211526;23;20364;-87
2022/10/12 11:38:49;;;;;;;23.13;12.73;;;;;;;;;;6211242;23;20372;-86
2022/10/12 11:41:22;;;;;;;26.23;12.47;;;19.20;99.90;;;;;;6200634;23;20609;-86
2022/10/12 11:43:48;;;;;;;21.70;12.87;;;;;;;;;;6205909;23;20393;-86
2022/10/12 11:46:16;;;;;;;19.27;12.47;;;19.40;99.90;;;;;;6200901;23;20381;-86
2022/10/12 11:48:53;;;;;;;25.17;13.83;;;19.40;99.90;;;;;;6223258;23;20464;-87
2022/10/12 11:51:19;;;;;;;25.90;13.20;;;;;;;;;;6204773;23;20364;-87
2022/10/12 11:53:57;;;;;;;20.53;13.03;;;19.20;99.90;;;;;;6203821;23;20443;-86
2022/10/12 11:56:35;;;;;;;19.00;11.53;;;19.20;99.90;;;;;;6201432;23;20392;-87
2022/10/12 11:59:09;;;;;;;27.33;13.80;;;19.20;99.90;;;;;;6228056;23;20373;-87
2022/10/12 12:01:34;;;;;;;30.30;13.77;;;;;;;;;;6202115;23;20348;-86
2022/10/12 12:04:26;;;;;;;26.90;15.37;;;18.70;99.90;;;;;;6227058;23;20369;-87
2022/10/12 12:06:57;;;;;;;31.33;15.47;;;18.60;99.90;;;;;;6205060;23;20456;-86
2022/10/12 12:09:33;;;;;;;22.63;13.40;;;18.60;99.90;;;;;;6215528;23;20329;-87
2022/10/12 12:12:11;;;;;;;29.63;15.70;;;18.50;99.90;;;;;;6222596;23;20450;-87
2022/10/12 12:14:46;;;;;;;21.53;13.97;;;18.80;99.90;;;;;;6211083;23;20411;-86
2022/10/12 12:17:12;;;;;;;23.57;13.03;;;;;;;;;;6204486;23;20368;-86
2022/10/12 12:19:42;;;;;;;27.23;13.53;;;19.50;99.90;;;;;;6204985;23;20743;-86
2022/10/12 12:22:28;;;;;;;24.77;13.83;;;19.40;99.90;;;;;;6225379;22;20419;-86
2022/10/12 12:24:54;;;;;;;17.33;11.53;;;;;;;;;;6203803;23;20499;-87
2022/10/12 12:27:30;;;;;;;22.97;12.60;;;19.20;99.90;;;;;;6201299;23;20474;-87
2022/10/12 12:29:58;;;;;;;26.17;12.50;;;18.80;99.90;;;;;;6203969;23;20929;-87
2022/10/12 12:32:25;;;;;;;30.63;13.53;;;18.90;99.90;;;;;;6200529;23;20396;-86
2022/10/12 12:34:57;;;;;;;21.80;13.40;;;18.90;99.90;;;;;;6225608;23;20505;-86
2022/10/12 12:37:29;;;;;;;18.27;11.90;;;19.20;99.90;;;;;;6200442;23;20372;-86
2022/10/12 12:39:57;;;;;;;21.83;11.50;;;19.30;99.90;;;;;;6223968;23;20369;-86
2022/10/12 12:42:26;;;;;;;18.20;10.63;;;19.50;99.90;;;;;;6219454;22;20432;-85
2022/10/12 12:44:52;;;;;;;20.20;11.13;;;;;;;;;;6199836;23;20918;-86
2022/10/12 12:47:20;;;;;;;24.47;11.57;;;18.90;99.90;;;;;;6202225;23;20691;-86
2022/10/12 12:49:50;;;;;;;15.90;10.97;;;19.20;99.90;;;;;;6198711;23;20377;-87
2022/10/12 12:52:32;;;;;;;30.00;12.53;;;18.90;99.90;;;;;;6203403;23;20496;-87
2022/10/12 12:55:06;;;;;;;19.10;12.13;;;18.90;99.90;;;;;;6202109;23;20420;-86
2022/10/12 12:58:02;;;;;;;19.10;10.77;;;18.90;99.90;;;;;;6226102;23;20371;-86
2022/10/12 13:00:52;;;;;;;20.67;10.97;;;19.40;99.90;;;;;;6201004;23;20433;-86
2022/10/12 13:03:41;;;;;;;17.87;11.30;;;19.70;99.90;;;;;;6205211;23;20499;-86
2022/10/12 13:06:38;;;;;;;18.73;10.77;;;19.80;99.90;;;;;;6230897;23;20402;-86
2022/10/12 13:09:30;;;;;;;21.80;10.80;;;19.50;99.90;;;;;;6214984;23;20382;-87
2022/10/12 13:12:07;;;;;;;24.03;11.10;;;19.10;99.90;;;;;;6201116;23;20954;-88
2022/10/12 13:14:38;;;;;;;18.63;9.87;;;19.10;99.90;;;;;;6200670;23;20502;-87
2022/10/12 13:17:25;;;;;;;18.17;9.30;;;19.50;99.90;;;;;;6226915;23;20437;-87
2022/10/12 13:19:53;;;;;;;23.30;10.47;;;19.80;99.90;;;;;;6225618;23;20383;-87
2022/10/12 13:22:29;;;;;;;21.80;12.37;;;19.90;99.90;;;;;;6203630;23;20388;-87
2022/10/12 13:25:03;;;;;;;22.47;10.53;;;19.30;99.90;;;;;;6201104;23;20550;-87
2022/10/12 13:27:47;;;;;;;13.70;8.60;;;19.50;99.90;;;;;;6225543;23;20375;-87
2022/10/12 13:30:33;;;;;;;23.50;8.67;;;19.00;99.90;;;;;;6205220;23;20867;-87
2022/10/12 13:33:08;;;;;;;15.70;10.00;;;18.50;99.90;;;;;;6228089;22;20408;-88
2022/10/12 13:35:46;;;;;;;27.30;11.07;;;18.20;99.90;;;;;;6206224;23;20827;-89
2022/10/12 13:38:14;;;;;;;12.33;9.03;;;18.30;99.90;;;;;;6202612;23;20759;-87
2022/10/12 13:40:43;;;;;;;21.10;9.93;;;18.40;99.90;;;;;;6227828;23;20372;-87
2022/10/12 13:43:30;;;;;;;17.77;8.20;;;18.40;99.90;;;;;;6203932;23;20498;-87
2022/10/12 13:45:56;;;;;;;12.30;7.93;;;;;;;;;;6226648;23;20750;-86
2022/10/12 13:48:23;;;;;;;16.70;7.60;;;18.20;99.90;;;;;;6202639;23;20372;-87
2022/10/12 13:51:00;;;;;;;20.67;8.37;;;17.90;99.90;;;;;;6203590;23;20364;-88